sensor_id;sensor_type;location;lat;lon;timestamp;P1;durP1;ratioP1;P2;durP2;ratioP2
46447;SDS011;32145;50.390;30.778;2023-11-21T00:02:05;20.67;;;12.23;;
46447;SDS011;32145;50.390;30.778;2023-11-21T00:04:59;20.10;;;11.35;;
46447;SDS011;32145;50.390;30.778;2023-11-21T00:07:54;22.30;;;11.60;;
46447;SDS011;32145;50.390;30.778;2023-11-21T00:10:48;21.80;;;11.82;;
46447;SDS011;32145;50.390;30.778;2023-11-21T00:13:42;19.85;;;10.93;;
46447;SDS011;32145;50.390;30.778;2023-11-21T00:16:38;17.42;;;10.68;;
46447;SDS011;32145;50.390;30.778;2023-11-21T00:19:36;20.58;;;11.93;;
46447;SDS011;32145;50.390;30.778;2023-11-21T00:22:32;20.80;;;12.27;;
46447;SDS011;32145;50.390;30.778;2023-11-21T00:25:28;22.52;;;11.10;;
46447;SDS011;32145;50.390;30.778;2023-11-21T00:28:25;22.05;;;12.32;;
46447;SDS011;32145;50.390;30.778;2023-11-21T00:31:20;20.52;;;11.30;;
46447;SDS011;32145;50.390;30.778;2023-11-21T00:34:14;20.52;;;11.63;;
46447;SDS011;32145;50.390;30.778;2023-11-21T00:37:10;19.52;;;11.48;;
46447;SDS011;32145;50.390;30.778;2023-11-21T00:40:05;20.50;;;11.32;;
46447;SDS011;32145;50.390;30.778;2023-11-21T00:42:59;21.90;;;11.57;;
46447;SDS011;32145;50.390;30.778;2023-11-21T00:45:54;20.95;;;11.02;;
46447;SDS011;32145;50.390;30.778;2023-11-21T00:48:48;23.65;;;10.98;;
46447;SDS011;32145;50.390;30.778;2023-11-21T00:51:42;20.25;;;11.02;;
46447;SDS011;32145;50.390;30.778;2023-11-21T00:54:40;18.33;;;10.80;;
46447;SDS011;32145;50.390;30.778;2023-11-21T00:57:36;21.42;;;11.10;;
46447;SDS011;32145;50.390;30.778;2023-11-21T01:00:32;21.15;;;11.13;;
46447;SDS011;32145;50.390;30.778;2023-11-21T01:03:29;19.33;;;10.75;;
46447;SDS011;32145;50.390;30.778;2023-11-21T01:06:25;20.60;;;11.38;;
46447;SDS011;32145;50.390;30.778;2023-11-21T01:09:21;19.63;;;11.20;;
46447;SDS011;32145;50.390;30.778;2023-11-21T01:12:18;20.05;;;10.77;;
46447;SDS011;32145;50.390;30.778;2023-11-21T01:15:15;21.10;;;11.52;;
46447;SDS011;32145;50.390;30.778;2023-11-21T01:18:11;18.98;;;10.50;;
46447;SDS011;32145;50.390;30.778;2023-11-21T01:21:07;19.00;;;11.18;;
46447;SDS011;32145;50.390;30.778;2023-11-21T01:24:04;18.08;;;11.45;;
46447;SDS011;32145;50.390;30.778;2023-11-21T01:27:01;17.48;;;10.52;;
46447;SDS011;32145;50.390;30.778;2023-11-21T01:29:58;21.70;;;10.55;;
46447;SDS011;32145;50.390;30.778;2023-11-21T01:32:55;19.80;;;11.57;;
46447;SDS011;32145;50.390;30.778;2023-11-21T01:35:49;20.30;;;11.30;;
46447;SDS011;32145;50.390;30.778;2023-11-21T01:38:43;21.80;;;11.80;;
46447;SDS011;32145;50.390;30.778;2023-11-21T01:41:39;19.80;;;11.13;;
46447;SDS011;32145;50.390;30.778;2023-11-21T01:44:35;22.55;;;12.07;;
46447;SDS011;32145;50.390;30.778;2023-11-21T01:47:33;24.40;;;12.13;;
46447;SDS011;32145;50.390;30.778;2023-11-21T01:50:30;23.42;;;12.43;;
46447;SDS011;32145;50.390;30.778;2023-11-21T01:53:27;20.83;;;11.98;;
46447;SDS011;32145;50.390;30.778;2023-11-21T01:56:21;19.70;;;11.43;;
46447;SDS011;32145;50.390;30.778;2023-11-21T01:59:18;20.27;;;11.48;;
46447;SDS011;32145;50.390;30.778;2023-11-21T02:02:15;23.67;;;12.30;;
46447;SDS011;32145;50.390;30.778;2023-11-21T02:05:11;25.30;;;12.40;;
46447;SDS011;32145;50.390;30.778;2023-11-21T02:08:06;20.70;;;11.82;;
46447;SDS011;32145;50.390;30.778;2023-11-21T02:11:00;24.90;;;12.07;;
46447;SDS011;32145;50.390;30.778;2023-11-21T02:13:54;21.95;;;11.85;;
46447;SDS011;32145;50.390;30.778;2023-11-21T02:16:49;21.25;;;11.02;;
46447;SDS011;32145;50.390;30.778;2023-11-21T02:19:44;20.67;;;11.70;;
46447;SDS011;32145;50.390;30.778;2023-11-21T02:22:42;20.33;;;11.90;;
46447;SDS011;32145;50.390;30.778;2023-11-21T02:25:40;17.92;;;10.50;;
46447;SDS011;32145;50.390;30.778;2023-11-21T02:28:37;23.38;;;11.80;;
46447;SDS011;32145;50.390;30.778;2023-11-21T02:31:33;21.45;;;12.07;;
46447;SDS011;32145;50.390;30.778;2023-11-21T02:34:29;22.95;;;11.75;;
46447;SDS011;32145;50.390;30.778;2023-11-21T02:37:26;20.02;;;12.02;;
46447;SDS011;32145;50.390;30.778;2023-11-21T02:40:20;18.95;;;11.13;;
46447;SDS011;32145;50.390;30.778;2023-11-21T02:43:15;20.85;;;11.98;;
46447;SDS011;32145;50.390;30.778;2023-11-21T02:46:12;21.13;;;11.73;;
46447;SDS011;32145;50.390;30.778;2023-11-21T02:49:08;20.77;;;11.70;;
46447;SDS011;32145;50.390;30.778;2023-11-21T02:52:04;22.23;;;11.57;;
46447;SDS011;32145;50.390;30.778;2023-11-21T02:55:01;21.02;;;11.75;;
46447;SDS011;32145;50.390;30.778;2023-11-21T02:57:58;20.02;;;11.82;;
46447;SDS011;32145;50.390;30.778;2023-11-21T03:00:55;22.33;;;11.52;;
46447;SDS011;32145;50.390;30.778;2023-11-21T03:03:52;22.85;;;11.85;;
46447;SDS011;32145;50.390;30.778;2023-11-21T03:06:48;21.60;;;11.70;;
46447;SDS011;32145;50.390;30.778;2023-11-21T03:09:44;23.48;;;11.77;;
46447;SDS011;32145;50.390;30.778;2023-11-21T03:12:41;23.30;;;12.50;;
46447;SDS011;32145;50.390;30.778;2023-11-21T03:15:37;23.45;;;12.20;;
46447;SDS011;32145;50.390;30.778;2023-11-21T03:18:34;19.83;;;11.45;;
46447;SDS011;32145;50.390;30.778;2023-11-21T03:21:30;22.52;;;11.75;;
46447;SDS011;32145;50.390;30.778;2023-11-21T03:24:27;21.30;;;11.70;;
46447;SDS011;32145;50.390;30.778;2023-11-21T03:27:21;20.85;;;11.77;;
46447;SDS011;32145;50.390;30.778;2023-11-21T03:30:15;23.80;;;12.13;;
46447;SDS011;32145;50.390;30.778;2023-11-21T03:33:10;21.73;;;11.48;;
46447;SDS011;32145;50.390;30.778;2023-11-21T03:36:06;18.70;;;11.38;;
46447;SDS011;32145;50.390;30.778;2023-11-21T03:39:01;21.83;;;12.38;;
46447;SDS011;32145;50.390;30.778;2023-11-21T03:41:55;22.10;;;12.30;;
46447;SDS011;32145;50.390;30.778;2023-11-21T03:44:50;24.27;;;13.50;;
46447;SDS011;32145;50.390;30.778;2023-11-21T03:47:44;22.10;;;12.32;;
46447;SDS011;32145;50.390;30.778;2023-11-21T03:50:38;25.23;;;12.68;;
46447;SDS011;32145;50.390;30.778;2023-11-21T03:53:34;23.02;;;12.68;;
46447;SDS011;32145;50.390;30.778;2023-11-21T03:56:28;23.63;;;12.23;;
46447;SDS011;32145;50.390;30.778;2023-11-21T03:59:23;22.30;;;12.70;;
46447;SDS011;32145;50.390;30.778;2023-11-21T04:02:17;24.85;;;13.30;;
46447;SDS011;32145;50.390;30.778;2023-11-21T04:05:12;21.23;;;12.55;;
46447;SDS011;32145;50.390;30.778;2023-11-21T04:08:06;26.55;;;13.38;;
46447;SDS011;32145;50.390;30.778;2023-11-21T04:11:02;23.05;;;12.95;;
46447;SDS011;32145;50.390;30.778;2023-11-21T04:13:56;25.10;;;13.30;;
46447;SDS011;32145;50.390;30.778;2023-11-21T04:16:51;30.75;;;17.58;;
46447;SDS011;32145;50.390;30.778;2023-11-21T04:19:45;36.75;;;18.80;;
46447;SDS011;32145;50.390;30.778;2023-11-21T04:22:43;38.95;;;19.83;;
46447;SDS011;32145;50.390;30.778;2023-11-21T04:25:40;27.65;;;14.85;;
46447;SDS011;32145;50.390;30.778;2023-11-21T04:28:38;29.30;;;14.57;;
46447;SDS011;32145;50.390;30.778;2023-11-21T04:31:32;26.52;;;14.80;;
46447;SDS011;32145;50.390;30.778;2023-11-21T04:34:26;27.85;;;15.45;;
46447;SDS011;32145;50.390;30.778;2023-11-21T04:37:20;23.17;;;13.57;;
46447;SDS011;32145;50.390;30.778;2023-11-21T04:40:14;25.77;;;13.23;;
46447;SDS011;32145;50.390;30.778;2023-11-21T04:43:10;25.27;;;13.65;;
46447;SDS011;32145;50.390;30.778;2023-11-21T04:46:08;26.25;;;14.25;;
46447;SDS011;32145;50.390;30.778;2023-11-21T04:49:02;26.05;;;13.80;;
46447;SDS011;32145;50.390;30.778;2023-11-21T04:51:57;30.67;;;15.70;;
46447;SDS011;32145;50.390;30.778;2023-11-21T04:54:51;25.50;;;14.13;;
46447;SDS011;32145;50.390;30.778;2023-11-21T04:57:46;28.08;;;15.73;;
46447;SDS011;32145;50.390;30.778;2023-11-21T05:00:40;24.42;;;14.45;;
46447;SDS011;32145;50.390;30.778;2023-11-21T05:03:35;25.23;;;14.90;;
46447;SDS011;32145;50.390;30.778;2023-11-21T05:06:32;28.50;;;15.13;;
46447;SDS011;32145;50.390;30.778;2023-11-21T05:09:28;29.60;;;16.55;;
46447;SDS011;32145;50.390;30.778;2023-11-21T05:12:25;30.27;;;16.67;;
46447;SDS011;32145;50.390;30.778;2023-11-21T05:15:21;31.58;;;17.15;;
46447;SDS011;32145;50.390;30.778;2023-11-21T05:18:17;35.83;;;18.52;;
46447;SDS011;32145;50.390;30.778;2023-11-21T05:21:13;35.08;;;18.58;;
46447;SDS011;32145;50.390;30.778;2023-11-21T05:24:07;31.85;;;18.45;;
46447;SDS011;32145;50.390;30.778;2023-11-21T05:27:01;29.70;;;17.15;;
46447;SDS011;32145;50.390;30.778;2023-11-21T05:29:56;27.98;;;15.85;;
46447;SDS011;32145;50.390;30.778;2023-11-21T05:32:50;35.00;;;17.27;;
46447;SDS011;32145;50.390;30.778;2023-11-21T05:35:44;30.10;;;17.65;;
46447;SDS011;32145;50.390;30.778;2023-11-21T05:38:42;30.10;;;17.42;;
46447;SDS011;32145;50.390;30.778;2023-11-21T05:41:38;38.22;;;19.80;;
46447;SDS011;32145;50.390;30.778;2023-11-21T05:44:35;44.83;;;20.25;;
46447;SDS011;32145;50.390;30.778;2023-11-21T05:47:31;57.33;;;23.25;;
46447;SDS011;32145;50.390;30.778;2023-11-21T05:50:27;36.17;;;18.23;;
46447;SDS011;32145;50.390;30.778;2023-11-21T05:53:24;31.13;;;17.95;;
46447;SDS011;32145;50.390;30.778;2023-11-21T05:56:21;31.10;;;17.50;;
46447;SDS011;32145;50.390;30.778;2023-11-21T05:59:18;32.10;;;17.67;;
46447;SDS011;32145;50.390;30.778;2023-11-21T06:02:12;34.67;;;17.65;;
46447;SDS011;32145;50.390;30.778;2023-11-21T06:05:07;26.77;;;16.30;;
46447;SDS011;32145;50.390;30.778;2023-11-21T06:08:02;29.52;;;16.25;;
46447;SDS011;32145;50.390;30.778;2023-11-21T06:10:56;30.98;;;16.17;;
46447;SDS011;32145;50.390;30.778;2023-11-21T06:13:52;30.42;;;18.17;;
46447;SDS011;32145;50.390;30.778;2023-11-21T06:16:46;30.48;;;17.13;;
46447;SDS011;32145;50.390;30.778;2023-11-21T06:19:40;28.27;;;16.98;;
46447;SDS011;32145;50.390;30.778;2023-11-21T06:22:34;28.70;;;16.97;;
46447;SDS011;32145;50.390;30.778;2023-11-21T06:25:31;27.48;;;17.00;;
46447;SDS011;32145;50.390;30.778;2023-11-21T06:28:27;31.63;;;17.00;;
46447;SDS011;32145;50.390;30.778;2023-11-21T06:31:25;33.38;;;18.15;;
46447;SDS011;32145;50.390;30.778;2023-11-21T06:34:22;31.30;;;17.20;;
46447;SDS011;32145;50.390;30.778;2023-11-21T06:37:18;35.92;;;18.60;;
46447;SDS011;32145;50.390;30.778;2023-11-21T06:40:15;38.42;;;21.88;;
46447;SDS011;32145;50.390;30.778;2023-11-21T06:43:11;42.33;;;23.92;;
46447;SDS011;32145;50.390;30.778;2023-11-21T06:46:07;49.78;;;28.45;;
46447;SDS011;32145;50.390;30.778;2023-11-21T06:49:03;86.28;;;42.67;;
46447;SDS011;32145;50.390;30.778;2023-11-21T06:51:57;69.35;;;36.05;;
46447;SDS011;32145;50.390;30.778;2023-11-21T06:54:51;76.57;;;38.90;;
46447;SDS011;32145;50.390;30.778;2023-11-21T06:57:45;66.03;;;35.20;;
46447;SDS011;32145;50.390;30.778;2023-11-21T07:00:42;70.35;;;36.85;;
46447;SDS011;32145;50.390;30.778;2023-11-21T07:03:38;73.72;;;40.10;;
46447;SDS011;32145;50.390;30.778;2023-11-21T07:06:36;76.65;;;41.28;;
46447;SDS011;32145;50.390;30.778;2023-11-21T07:09:32;77.97;;;40.50;;
46447;SDS011;32145;50.390;30.778;2023-11-21T07:12:29;77.18;;;39.13;;
46447;SDS011;32145;50.390;30.778;2023-11-21T07:15:25;72.05;;;32.65;;
46447;SDS011;32145;50.390;30.778;2023-11-21T07:18:22;69.57;;;32.33;;
46447;SDS011;32145;50.390;30.778;2023-11-21T07:21:18;69.57;;;33.63;;
46447;SDS011;32145;50.390;30.778;2023-11-21T07:24:16;59.38;;;30.48;;
46447;SDS011;32145;50.390;30.778;2023-11-21T07:27:12;52.03;;;29.08;;
46447;SDS011;32145;50.390;30.778;2023-11-21T07:30:10;55.40;;;30.15;;
46447;SDS011;32145;50.390;30.778;2023-11-21T07:33:07;44.13;;;26.23;;
46447;SDS011;32145;50.390;30.778;2023-11-21T07:36:03;71.35;;;35.95;;
46447;SDS011;32145;50.390;30.778;2023-11-21T07:38:58;53.53;;;28.50;;
46447;SDS011;32145;50.390;30.778;2023-11-21T07:41:56;48.53;;;26.73;;
46447;SDS011;32145;50.390;30.778;2023-11-21T07:44:52;55.95;;;32.63;;
46447;SDS011;32145;50.390;30.778;2023-11-21T07:47:48;93.65;;;52.42;;
46447;SDS011;32145;50.390;30.778;2023-11-21T07:50:45;46.50;;;25.42;;
46447;SDS011;32145;50.390;30.778;2023-11-21T07:53:41;52.10;;;29.52;;
46447;SDS011;32145;50.390;30.778;2023-11-21T07:56:37;36.55;;;20.27;;
46447;SDS011;32145;50.390;30.778;2023-11-21T07:59:35;38.78;;;20.83;;
46447;SDS011;32145;50.390;30.778;2023-11-21T08:02:31;39.40;;;20.05;;
46447;SDS011;32145;50.390;30.778;2023-11-21T08:05:28;33.58;;;17.02;;
46447;SDS011;32145;50.390;30.778;2023-11-21T08:08:22;32.28;;;17.20;;
46447;SDS011;32145;50.390;30.778;2023-11-21T08:11:16;30.30;;;16.90;;
46447;SDS011;32145;50.390;30.778;2023-11-21T08:14:13;20.27;;;11.73;;
46447;SDS011;32145;50.390;30.778;2023-11-21T08:17:11;17.80;;;9.20;;
46447;SDS011;32145;50.390;30.778;2023-11-21T08:20:08;13.70;;;8.50;;
46447;SDS011;32145;50.390;30.778;2023-11-21T08:23:05;14.52;;;9.60;;
46447;SDS011;32145;50.390;30.778;2023-11-21T08:26:02;19.50;;;9.18;;
46447;SDS011;32145;50.390;30.778;2023-11-21T08:28:58;21.80;;;12.93;;
46447;SDS011;32145;50.390;30.778;2023-11-21T08:31:53;15.88;;;9.70;;
46447;SDS011;32145;50.390;30.778;2023-11-21T08:34:48;14.80;;;9.00;;
46447;SDS011;32145;50.390;30.778;2023-11-21T08:37:45;15.90;;;8.85;;
46447;SDS011;32145;50.390;30.778;2023-11-21T08:40:41;19.38;;;12.27;;
46447;SDS011;32145;50.390;30.778;2023-11-21T08:43:37;18.95;;;10.43;;
46447;SDS011;32145;50.390;30.778;2023-11-21T08:46:34;17.65;;;10.20;;
46447;SDS011;32145;50.390;30.778;2023-11-21T08:49:30;20.02;;;11.13;;
46447;SDS011;32145;50.390;30.778;2023-11-21T08:52:28;14.75;;;9.77;;
46447;SDS011;32145;50.390;30.778;2023-11-21T08:55:24;15.65;;;9.85;;
46447;SDS011;32145;50.390;30.778;2023-11-21T08:58:20;19.85;;;11.43;;
46447;SDS011;32145;50.390;30.778;2023-11-21T09:01:17;18.05;;;10.82;;
46447;SDS011;32145;50.390;30.778;2023-11-21T09:04:13;17.50;;;11.05;;
46447;SDS011;32145;50.390;30.778;2023-11-21T09:07:07;18.80;;;11.82;;
46447;SDS011;32145;50.390;30.778;2023-11-21T09:10:03;19.52;;;13.65;;
46447;SDS011;32145;50.390;30.778;2023-11-21T09:12:58;16.98;;;10.50;;
46447;SDS011;32145;50.390;30.778;2023-11-21T09:15:53;17.77;;;10.43;;
46447;SDS011;32145;50.390;30.778;2023-11-21T09:18:47;24.63;;;13.52;;
46447;SDS011;32145;50.390;30.778;2023-11-21T09:21:41;17.90;;;11.25;;
46447;SDS011;32145;50.390;30.778;2023-11-21T09:24:35;21.80;;;12.25;;
46447;SDS011;32145;50.390;30.778;2023-11-21T09:27:33;21.77;;;12.07;;
46447;SDS011;32145;50.390;30.778;2023-11-21T09:30:30;15.95;;;9.98;;
46447;SDS011;32145;50.390;30.778;2023-11-21T09:33:26;30.88;;;15.63;;
46447;SDS011;32145;50.390;30.778;2023-11-21T09:36:22;18.60;;;11.10;;
46447;SDS011;32145;50.390;30.778;2023-11-21T09:39:19;17.10;;;9.88;;
46447;SDS011;32145;50.390;30.778;2023-11-21T09:42:16;14.25;;;8.75;;
46447;SDS011;32145;50.390;30.778;2023-11-21T09:45:21;13.15;;;8.57;;
46447;SDS011;32145;50.390;30.778;2023-11-21T09:48:21;14.13;;;8.70;;
46447;SDS011;32145;50.390;30.778;2023-11-21T09:51:20;15.18;;;8.75;;
46447;SDS011;32145;50.390;30.778;2023-11-21T09:54:19;18.23;;;9.93;;
46447;SDS011;32145;50.390;30.778;2023-11-21T09:57:16;14.00;;;8.80;;
46447;SDS011;32145;50.390;30.778;2023-11-21T10:00:13;17.05;;;9.85;;
46447;SDS011;32145;50.390;30.778;2023-11-21T10:03:11;13.77;;;8.68;;
46447;SDS011;32145;50.390;30.778;2023-11-21T10:06:08;15.00;;;8.88;;
46447;SDS011;32145;50.390;30.778;2023-11-21T10:09:03;13.27;;;8.60;;
46447;SDS011;32145;50.390;30.778;2023-11-21T10:11:58;13.25;;;7.97;;
46447;SDS011;32145;50.390;30.778;2023-11-21T10:14:53;13.70;;;8.32;;
46447;SDS011;32145;50.390;30.778;2023-11-21T10:17:52;12.70;;;8.98;;
46447;SDS011;32145;50.390;30.778;2023-11-21T10:20:48;16.73;;;9.18;;
46447;SDS011;32145;50.390;30.778;2023-11-21T10:23:42;28.25;;;19.30;;
46447;SDS011;32145;50.390;30.778;2023-11-21T10:26:37;32.03;;;18.88;;
46447;SDS011;32145;50.390;30.778;2023-11-21T10:29:34;27.98;;;16.17;;
46447;SDS011;32145;50.390;30.778;2023-11-21T10:32:30;15.10;;;8.88;;
46447;SDS011;32145;50.390;30.778;2023-11-21T10:35:38;21.05;;;12.05;;
46447;SDS011;32145;50.390;30.778;2023-11-21T10:38:41;29.05;;;16.38;;
46447;SDS011;32145;50.390;30.778;2023-11-21T10:41:37;28.92;;;17.58;;
46447;SDS011;32145;50.390;30.778;2023-11-21T10:44:34;14.43;;;9.40;;
46447;SDS011;32145;50.390;30.778;2023-11-21T10:47:30;13.88;;;8.68;;
46447;SDS011;32145;50.390;30.778;2023-11-21T10:50:27;13.82;;;8.60;;
46447;SDS011;32145;50.390;30.778;2023-11-21T10:53:23;12.82;;;7.63;;
46447;SDS011;32145;50.390;30.778;2023-11-21T10:56:22;18.30;;;12.27;;
46447;SDS011;32145;50.390;30.778;2023-11-21T10:59:19;24.52;;;17.92;;
46447;SDS011;32145;50.390;30.778;2023-11-21T11:02:16;14.73;;;9.15;;
46447;SDS011;32145;50.390;30.778;2023-11-21T11:05:18;12.98;;;8.45;;
46447;SDS011;32145;50.390;30.778;2023-11-21T11:11:13;22.75;;;15.10;;
46447;SDS011;32145;50.390;30.778;2023-11-21T11:14:11;39.63;;;26.00;;
46447;SDS011;32145;50.390;30.778;2023-11-21T11:17:07;34.33;;;23.48;;
46447;SDS011;32145;50.390;30.778;2023-11-21T11:20:06;18.33;;;11.25;;
46447;SDS011;32145;50.390;30.778;2023-11-21T11:23:13;19.25;;;10.65;;
46447;SDS011;32145;50.390;30.778;2023-11-21T11:26:29;17.33;;;10.30;;
46447;SDS011;32145;50.390;30.778;2023-11-21T11:29:39;17.60;;;10.70;;
46447;SDS011;32145;50.390;30.778;2023-11-21T11:32:47;18.48;;;11.35;;
46447;SDS011;32145;50.390;30.778;2023-11-21T11:35:52;29.65;;;15.70;;
46447;SDS011;32145;50.390;30.778;2023-11-21T11:38:56;24.13;;;13.38;;
46447;SDS011;32145;50.390;30.778;2023-11-21T11:41:52;22.02;;;13.15;;
46447;SDS011;32145;50.390;30.778;2023-11-21T11:44:53;19.88;;;11.73;;
46447;SDS011;32145;50.390;30.778;2023-11-21T11:47:49;19.08;;;11.70;;
46447;SDS011;32145;50.390;30.778;2023-11-21T11:51:00;21.52;;;12.80;;
46447;SDS011;32145;50.390;30.778;2023-11-21T11:53:55;145.18;;;60.05;;
46447;SDS011;32145;50.390;30.778;2023-11-21T11:56:50;31.45;;;17.48;;
46447;SDS011;32145;50.390;30.778;2023-11-21T12:03:07;108.47;;;34.13;;
46447;SDS011;32145;50.390;30.778;2023-11-21T12:06:03;87.90;;;28.25;;
46447;SDS011;32145;50.390;30.778;2023-11-21T12:09:00;66.45;;;21.52;;
46447;SDS011;32145;50.390;30.778;2023-11-21T12:11:57;48.30;;;19.65;;
46447;SDS011;32145;50.390;30.778;2023-11-21T12:14:54;43.22;;;16.92;;
46447;SDS011;32145;50.390;30.778;2023-11-21T12:17:52;45.58;;;18.70;;
46447;SDS011;32145;50.390;30.778;2023-11-21T12:20:46;40.85;;;18.85;;
46447;SDS011;32145;50.390;30.778;2023-11-21T12:23:41;35.85;;;17.05;;
46447;SDS011;32145;50.390;30.778;2023-11-21T12:26:35;28.67;;;14.52;;
46447;SDS011;32145;50.390;30.778;2023-11-21T12:29:29;21.95;;;12.73;;
46447;SDS011;32145;50.390;30.778;2023-11-21T12:32:24;28.00;;;12.75;;
46447;SDS011;32145;50.390;30.778;2023-11-21T12:35:20;19.00;;;10.70;;
46447;SDS011;32145;50.390;30.778;2023-11-21T12:38:17;17.08;;;10.93;;
46447;SDS011;32145;50.390;30.778;2023-11-21T12:41:15;20.00;;;10.50;;
46447;SDS011;32145;50.390;30.778;2023-11-21T12:44:12;16.23;;;10.00;;
46447;SDS011;32145;50.390;30.778;2023-11-21T12:47:08;16.40;;;10.43;;
46447;SDS011;32145;50.390;30.778;2023-11-21T12:50:05;16.67;;;10.52;;
46447;SDS011;32145;50.390;30.778;2023-11-21T12:53:04;20.30;;;10.77;;
46447;SDS011;32145;50.390;30.778;2023-11-21T12:56:01;17.08;;;11.02;;
46447;SDS011;32145;50.390;30.778;2023-11-21T12:58:58;58.40;;;29.67;;
46447;SDS011;32145;50.390;30.778;2023-11-21T13:01:54;26.25;;;15.40;;
46447;SDS011;32145;50.390;30.778;2023-11-21T13:04:51;35.33;;;15.82;;
46447;SDS011;32145;50.390;30.778;2023-11-21T13:07:46;28.10;;;14.27;;
46447;SDS011;32145;50.390;30.778;2023-11-21T13:10:43;61.40;;;25.35;;
46447;SDS011;32145;50.390;30.778;2023-11-21T13:13:40;24.58;;;12.80;;
46447;SDS011;32145;50.390;30.778;2023-11-21T13:16:35;34.67;;;20.35;;
46447;SDS011;32145;50.390;30.778;2023-11-21T13:19:29;33.08;;;16.50;;
46447;SDS011;32145;50.390;30.778;2023-11-21T13:22:23;23.50;;;12.25;;
46447;SDS011;32145;50.390;30.778;2023-11-21T13:25:17;33.58;;;19.10;;
46447;SDS011;32145;50.390;30.778;2023-11-21T13:28:13;26.02;;;14.38;;
46447;SDS011;32145;50.390;30.778;2023-11-21T13:31:09;41.88;;;17.92;;
46447;SDS011;32145;50.390;30.778;2023-11-21T13:34:04;36.35;;;15.68;;
46447;SDS011;32145;50.390;30.778;2023-11-21T13:36:58;24.10;;;12.15;;
46447;SDS011;32145;50.390;30.778;2023-11-21T13:39:55;22.30;;;13.00;;
46447;SDS011;32145;50.390;30.778;2023-11-21T13:42:51;27.92;;;15.13;;
46447;SDS011;32145;50.390;30.778;2023-11-21T13:45:47;21.73;;;12.73;;
46447;SDS011;32145;50.390;30.778;2023-11-21T13:48:43;28.30;;;15.95;;
46447;SDS011;32145;50.390;30.778;2023-11-21T13:51:37;29.83;;;16.58;;
46447;SDS011;32145;50.390;30.778;2023-11-21T13:54:32;37.88;;;20.17;;
46447;SDS011;32145;50.390;30.778;2023-11-21T13:57:26;40.42;;;23.30;;
46447;SDS011;32145;50.390;30.778;2023-11-21T14:00:20;26.08;;;15.85;;
46447;SDS011;32145;50.390;30.778;2023-11-21T14:03:16;27.02;;;14.88;;
46447;SDS011;32145;50.390;30.778;2023-11-21T14:06:10;44.42;;;24.08;;
46447;SDS011;32145;50.390;30.778;2023-11-21T14:09:05;22.00;;;13.27;;
46447;SDS011;32145;50.390;30.778;2023-11-21T14:11:59;21.02;;;12.52;;
46447;SDS011;32145;50.390;30.778;2023-11-21T14:14:54;25.13;;;14.27;;
46447;SDS011;32145;50.390;30.778;2023-11-21T14:17:48;38.25;;;20.65;;
46447;SDS011;32145;50.390;30.778;2023-11-21T14:20:45;51.78;;;29.88;;
46447;SDS011;32145;50.390;30.778;2023-11-21T14:23:41;28.75;;;16.88;;
46447;SDS011;32145;50.390;30.778;2023-11-21T14:26:39;26.40;;;14.90;;
46447;SDS011;32145;50.390;30.778;2023-11-21T14:29:36;22.85;;;13.65;;
46447;SDS011;32145;50.390;30.778;2023-11-21T14:32:32;25.50;;;15.13;;
46447;SDS011;32145;50.390;30.778;2023-11-21T14:35:29;35.80;;;20.45;;
46447;SDS011;32145;50.390;30.778;2023-11-21T14:38:26;39.65;;;22.42;;
46447;SDS011;32145;50.390;30.778;2023-11-21T14:41:23;41.28;;;22.33;;
46447;SDS011;32145;50.390;30.778;2023-11-21T14:44:19;39.97;;;23.45;;
46447;SDS011;32145;50.390;30.778;2023-11-21T14:47:15;32.58;;;18.98;;
46447;SDS011;32145;50.390;30.778;2023-11-21T14:50:11;37.83;;;20.85;;
46447;SDS011;32145;50.390;30.778;2023-11-21T14:53:06;35.10;;;19.08;;
46447;SDS011;32145;50.390;30.778;2023-11-21T14:56:02;51.65;;;29.90;;
46447;SDS011;32145;50.390;30.778;2023-11-21T14:58:57;37.38;;;21.25;;
46447;SDS011;32145;50.390;30.778;2023-11-21T15:01:51;41.25;;;24.92;;
46447;SDS011;32145;50.390;30.778;2023-11-21T15:04:46;38.70;;;24.45;;
46447;SDS011;32145;50.390;30.778;2023-11-21T15:07:40;34.28;;;20.85;;
46447;SDS011;32145;50.390;30.778;2023-11-21T15:10:34;54.72;;;31.05;;
46447;SDS011;32145;50.390;30.778;2023-11-21T15:13:30;48.50;;;28.60;;
46447;SDS011;32145;50.390;30.778;2023-11-21T15:16:24;78.05;;;46.38;;
46447;SDS011;32145;50.390;30.778;2023-11-21T15:19:21;59.70;;;34.78;;
46447;SDS011;32145;50.390;30.778;2023-11-21T15:22:15;57.45;;;32.10;;
46447;SDS011;32145;50.390;30.778;2023-11-21T15:25:10;39.10;;;23.63;;
46447;SDS011;32145;50.390;30.778;2023-11-21T15:28:04;43.17;;;24.35;;
46447;SDS011;32145;50.390;30.778;2023-11-21T15:31:00;43.17;;;24.73;;
46447;SDS011;32145;50.390;30.778;2023-11-21T15:33:57;70.93;;;35.28;;
46447;SDS011;32145;50.390;30.778;2023-11-21T15:36:53;73.25;;;36.55;;
46447;SDS011;32145;50.390;30.778;2023-11-21T15:39:49;57.63;;;33.13;;
46447;SDS011;32145;50.390;30.778;2023-11-21T15:42:45;40.95;;;22.63;;
46447;SDS011;32145;50.390;30.778;2023-11-21T15:45:41;39.38;;;24.25;;
46447;SDS011;32145;50.390;30.778;2023-11-21T15:48:39;44.63;;;27.58;;
46447;SDS011;32145;50.390;30.778;2023-11-21T15:51:35;56.25;;;31.20;;
46447;SDS011;32145;50.390;30.778;2023-11-21T15:54:32;64.75;;;33.80;;
46447;SDS011;32145;50.390;30.778;2023-11-21T15:57:26;56.90;;;34.13;;
46447;SDS011;32145;50.390;30.778;2023-11-21T16:00:21;64.30;;;35.38;;
46447;SDS011;32145;50.390;30.778;2023-11-21T16:03:15;42.25;;;24.52;;
46447;SDS011;32145;50.390;30.778;2023-11-21T16:06:10;40.90;;;23.50;;
46447;SDS011;32145;50.390;30.778;2023-11-21T16:09:05;55.53;;;30.00;;
46447;SDS011;32145;50.390;30.778;2023-11-21T16:12:00;37.10;;;22.15;;
46447;SDS011;32145;50.390;30.778;2023-11-21T16:14:58;37.70;;;21.00;;
46447;SDS011;32145;50.390;30.778;2023-11-21T16:17:54;37.92;;;22.13;;
46447;SDS011;32145;50.390;30.778;2023-11-21T16:20:50;43.28;;;24.13;;
46447;SDS011;32145;50.390;30.778;2023-11-21T16:23:48;44.00;;;25.67;;
46447;SDS011;32145;50.390;30.778;2023-11-21T16:26:45;55.30;;;30.33;;
46447;SDS011;32145;50.390;30.778;2023-11-21T16:29:42;67.07;;;37.30;;
46447;SDS011;32145;50.390;30.778;2023-11-21T16:32:36;45.90;;;27.75;;
46447;SDS011;32145;50.390;30.778;2023-11-21T16:35:30;38.17;;;23.15;;
46447;SDS011;32145;50.390;30.778;2023-11-21T16:38:24;35.97;;;20.25;;
46447;SDS011;32145;50.390;30.778;2023-11-21T16:41:20;33.67;;;19.60;;
46447;SDS011;32145;50.390;30.778;2023-11-21T16:44:15;40.53;;;20.23;;
46447;SDS011;32145;50.390;30.778;2023-11-21T16:47:10;35.65;;;19.17;;
46447;SDS011;32145;50.390;30.778;2023-11-21T16:50:06;79.43;;;33.78;;
46447;SDS011;32145;50.390;30.778;2023-11-21T16:53:03;63.83;;;28.27;;
46447;SDS011;32145;50.390;30.778;2023-11-21T16:55:59;36.72;;;20.63;;
46447;SDS011;32145;50.390;30.778;2023-11-21T16:58:57;36.53;;;19.65;;
46447;SDS011;32145;50.390;30.778;2023-11-21T17:01:54;55.38;;;29.90;;
46447;SDS011;32145;50.390;30.778;2023-11-21T17:04:50;56.45;;;31.85;;